Madrid Aeropuerto

latitud = 40° 28' 00''N | longitud = 003° 33' 20''W
667 metros sobre el nivel del mar |

Fecha, hora, temperatura, viento dirección y velocidad, humedad y presión.

  • 16-07-2018 13:00:00 | 25.80°C | Norte |6.00 km/h | 33.00% | 951.70 hPa
  • 16-07-2018 12:00:00 | 24.70°C | Norte |5.00 km/h | 36.00% | 951.80 hPa
  • 16-07-2018 11:00:00 | 23.00°C | Noroeste |9.00 km/h | 45.00% | 951.40 hPa
  • 16-07-2018 10:00:00 | 21.20°C | Norte |7.00 km/h | 49.00% | 951.40 hPa
  • 16-07-2018 09:00:00 | 20.40°C | Noroeste |12.00 km/h | 50.00% | 951.10 hPa
  • 16-07-2018 08:00:00 | 18.00°C | Sur |11.00 km/h | 58.00% | 950.70 hPa
  • 16-07-2018 07:00:00 | 16.80°C | Nordeste |9.00 km/h | 59.00% | 950.50 hPa
  • 16-07-2018 06:00:00 | 17.10°C | Sudeste |7.00 km/h | 56.00% | 949.90 hPa
  • 16-07-2018 05:00:00 | 18.00°C | Este |6.00 km/h | 52.00% | 949.80 hPa
  • 16-07-2018 04:00:00 | 20.10°C | Nordeste |7.00 km/h | 47.00% | 950.30 hPa
  • 16-07-2018 03:00:00 | 21.40°C | Oeste |19.00 km/h | 42.00% | 949.70 hPa
  • 16-07-2018 02:00:00 | 22.10°C | Oeste |21.00 km/h | 39.00% | 949.50 hPa
  • 16-07-2018 01:00:00 | 22.90°C | Sudoeste |16.00 km/h | 37.00% | 949.30 hPa
  • 16-07-2018 00:00:00 | 23.70°C | Sudoeste |27.00 km/h | 34.00% | 949.10 hPa
  • 15-07-2018 23:00:00 | 24.10°C | Sudoeste |27.00 km/h | 34.00% | 949.00 hPa
  • 15-07-2018 22:00:00 | 25.00°C | Sudoeste |30.00 km/h | 33.00% | 948.40 hPa
  • 15-07-2018 21:00:00 | 26.80°C | Sudoeste |27.00 km/h | 29.00% | 947.80 hPa
  • 15-07-2018 20:00:00 | 28.40°C | Sudoeste |28.00 km/h | 25.00% | 947.60 hPa
  • 15-07-2018 19:00:00 | 29.20°C | Sudoeste |25.00 km/h | 24.00% | 948.00 hPa
  • 15-07-2018 18:00:00 | 29.30°C | Sudoeste |24.00 km/h | 23.00% | 948.20 hPa
  • 15-07-2018 17:00:00 | 29.40°C | Sudoeste |24.00 km/h | 22.00% | 948.60 hPa
  • 15-07-2018 16:00:00 | 29.30°C | Sudoeste |19.00 km/h | 24.00% | 948.60 hPa
  • 15-07-2018 15:00:00 | 28.60°C | Sur |17.00 km/h | 25.00% | 949.00 hPa
  • 15-07-2018 14:00:00 | 27.90°C | Sudoeste |21.00 km/h | 31.00% | 949.40 hPa
    • Datos gráficos mensuales en Madrid: